createdAt,value
2023-03-20T00:00:52.683Z,3.20
2023-03-20T00:03:20.558Z,2.50
2023-03-20T00:05:49.088Z,2.77
2023-03-20T00:08:16.887Z,2.70
2023-03-20T00:10:47.900Z,2.53
2023-03-20T00:13:22.829Z,2.37
2023-03-20T00:15:51.556Z,3.27
2023-03-20T00:18:23.028Z,2.70
2023-03-20T00:20:51.848Z,2.40
2023-03-20T00:23:19.577Z,3.20
2023-03-20T00:25:48.784Z,2.63
2023-03-20T00:28:32.476Z,2.33
2023-03-20T00:31:00.286Z,2.50
2023-03-20T00:33:28.247Z,2.73
2023-03-20T00:35:56.396Z,2.57
2023-03-20T00:38:24.218Z,3.30
2023-03-20T00:40:55.345Z,2.80
2023-03-20T00:43:24.084Z,2.53
2023-03-20T00:45:51.929Z,2.40
2023-03-20T00:48:19.729Z,2.20
2023-03-20T00:50:47.560Z,2.10
2023-03-20T00:53:15.327Z,2.37
2023-03-20T00:55:43.142Z,2.27
2023-03-20T00:58:13.059Z,2.83
2023-03-20T01:00:42.296Z,2.10
2023-03-20T01:03:16.969Z,2.33
2023-03-20T01:05:45.646Z,2.27
2023-03-20T01:08:15.747Z,2.20
2023-03-20T01:10:45.151Z,2.10
2023-03-20T01:13:22.220Z,1.67
2023-03-20T01:15:51.550Z,1.93
2023-03-20T01:18:21.032Z,2.20
2023-03-20T01:20:49.807Z,2.00
2023-03-20T01:23:18.319Z,2.50
2023-03-20T01:25:46.504Z,2.10
2023-03-20T01:28:19.298Z,2.00
2023-03-20T01:30:47.755Z,1.70
2023-03-20T01:33:18.225Z,2.23
2023-03-20T01:35:46.927Z,1.67
2023-03-20T01:38:18.900Z,1.93
2023-03-20T01:40:54.270Z,1.50
2023-03-20T01:43:25.535Z,1.50
2023-03-20T01:46:02.224Z,1.77
2023-03-20T01:48:57.067Z,1.93
2023-03-20T01:51:26.354Z,1.80
2023-03-20T01:53:58.150Z,1.80
2023-03-20T01:56:27.067Z,1.43
2023-03-20T01:59:01.531Z,1.60
2023-03-20T02:01:30.268Z,1.67
2023-03-20T02:03:58.335Z,1.50
2023-03-20T02:06:27.261Z,1.83
2023-03-20T02:08:55.125Z,2.07
2023-03-20T02:11:25.253Z,1.80
2023-03-20T02:13:55.418Z,1.60
2023-03-20T02:16:24.579Z,1.80
2023-03-20T02:18:56.095Z,1.60
2023-03-20T02:22:08.807Z,1.60
2023-03-20T02:25:15.537Z,1.50
2023-03-20T02:27:58.730Z,1.40
2023-03-20T02:30:58.370Z,1.50
2023-03-20T02:33:51.071Z,1.70
2023-03-20T02:37:03.390Z,1.80
2023-03-20T02:39:47.112Z,1.60
2023-03-20T02:42:20.927Z,1.77
2023-03-20T02:44:58.711Z,1.60
2023-03-20T02:47:31.540Z,1.60
2023-03-20T02:50:06.679Z,1.77
2023-03-20T02:52:44.807Z,1.67
2023-03-20T02:55:19.272Z,1.70
2023-03-20T02:57:58.270Z,2.10
2023-03-20T03:00:31.494Z,1.60
2023-03-20T03:03:05.618Z,1.70
2023-03-20T03:05:38.794Z,1.83
2023-03-20T03:08:10.772Z,1.90
2023-03-20T03:10:42.952Z,1.60
2023-03-20T03:13:15.287Z,1.47
2023-03-20T03:15:47.419Z,1.57
2023-03-20T03:18:20.456Z,1.80
2023-03-20T03:20:50.015Z,1.20
2023-03-20T03:23:23.530Z,1.10
2023-03-20T03:25:55.067Z,1.53
2023-03-20T03:28:30.826Z,1.33
2023-03-20T03:31:00.098Z,1.63
2023-03-20T03:33:30.882Z,1.60
2023-03-20T03:36:06.682Z,1.40
2023-03-20T03:38:41.908Z,1.30
2023-03-20T03:41:23.658Z,1.40
2023-03-20T03:43:59.481Z,1.23
2023-03-20T03:46:35.744Z,1.13
2023-03-20T03:49:05.894Z,1.27
2023-03-20T03:51:39.319Z,1.20
2023-03-20T03:54:11.439Z,1.27
2023-03-20T03:56:44.153Z,1.50
2023-03-20T03:59:18.043Z,0.97
2023-03-20T04:01:51.577Z,1.37
2023-03-20T04:04:21.689Z,1.30
2023-03-20T04:06:49.535Z,1.30
2023-03-20T04:09:17.344Z,1.10
2023-03-20T04:11:49.895Z,1.50
2023-03-20T04:14:18.238Z,1.07
2023-03-20T04:16:46.242Z,1.27
2023-03-20T04:19:14.133Z,1.30
2023-03-20T04:21:41.973Z,1.30
2023-03-20T04:24:10.008Z,1.17
2023-03-20T04:26:37.863Z,1.00
2023-03-20T04:29:07.038Z,1.43
2023-03-20T04:31:34.900Z,1.30
2023-03-20T04:34:02.698Z,1.27
2023-03-20T04:36:30.566Z,1.40
2023-03-20T04:38:58.318Z,1.40
2023-03-20T04:41:26.536Z,1.30
2023-03-20T04:43:54.310Z,1.50
2023-03-20T04:46:23.505Z,1.23
2023-03-20T04:48:51.331Z,1.40
2023-03-20T04:51:19.099Z,1.20
2023-03-20T04:53:47.791Z,1.60
2023-03-20T04:56:15.668Z,1.70
2023-03-20T04:58:43.677Z,1.67
2023-03-20T05:01:11.571Z,1.50
2023-03-20T05:03:40.765Z,1.40
2023-03-20T05:06:09.554Z,2.13
2023-03-20T05:08:37.678Z,1.73
2023-03-20T05:11:05.954Z,1.53
2023-03-20T05:13:33.720Z,1.77
2023-03-20T05:16:01.673Z,1.63
2023-03-20T05:18:29.442Z,1.47
2023-03-20T05:20:58.664Z,1.70
2023-03-20T05:23:26.445Z,1.90
2023-03-20T05:25:54.264Z,1.80
2023-03-20T05:28:22.105Z,2.00
2023-03-20T05:30:49.919Z,1.83
2023-03-20T05:33:17.897Z,2.57
2023-03-20T05:35:46.080Z,2.00
2023-03-20T05:38:15.569Z,2.20
2023-03-20T05:40:43.390Z,2.43
2023-03-20T05:43:11.282Z,2.13
2023-03-20T05:45:39.039Z,2.57
2023-03-20T05:48:07.542Z,2.70
2023-03-20T05:50:35.314Z,2.60
2023-03-20T05:53:03.209Z,2.40
2023-03-20T05:55:32.884Z,2.80
2023-03-20T05:58:00.769Z,2.70
2023-03-20T06:00:28.981Z,2.80
2023-03-20T06:02:57.572Z,2.90
2023-03-20T06:05:25.397Z,2.40
2023-03-20T06:07:53.171Z,2.97
2023-03-20T06:10:21.075Z,2.47
2023-03-20T06:12:50.497Z,3.37
2023-03-20T06:15:18.476Z,2.50
2023-03-20T06:17:46.260Z,3.40
2023-03-20T06:20:14.566Z,3.17
2023-03-20T06:22:42.665Z,2.90
2023-03-20T06:25:11.271Z,2.40
2023-03-20T06:27:39.312Z,2.70
2023-03-20T06:30:10.316Z,3.47
2023-03-20T06:32:38.209Z,2.73
2023-03-20T06:35:07.499Z,3.40
2023-03-20T06:37:36.205Z,3.23
2023-03-20T06:40:04.577Z,3.23
2023-03-20T06:42:32.396Z,3.50
2023-03-20T06:45:00.260Z,2.80
2023-03-20T06:47:29.436Z,3.23
2023-03-20T06:49:57.239Z,3.27
2023-03-20T06:52:25.216Z,3.20
2023-03-20T06:54:53.012Z,3.37
2023-03-20T06:57:20.811Z,3.00
2023-03-20T06:59:48.616Z,3.10
2023-03-20T07:02:16.888Z,3.50
2023-03-20T07:04:46.657Z,3.53
2023-03-20T07:07:14.786Z,3.40
2023-03-20T07:09:43.167Z,3.10
2023-03-20T07:12:14.352Z,3.70
2023-03-20T07:14:42.768Z,3.23
2023-03-20T07:17:11.041Z,3.33
2023-03-20T07:19:39.198Z,3.37
2023-03-20T07:22:12.803Z,3.50
2023-03-20T07:24:40.659Z,3.40
2023-03-20T07:27:08.499Z,3.40
2023-03-20T07:29:37.068Z,3.33
2023-03-20T07:32:04.884Z,3.17
2023-03-20T07:34:32.705Z,3.47
2023-03-20T07:37:00.563Z,3.50
2023-03-20T07:39:30.012Z,2.90
2023-03-20T07:41:57.775Z,3.63
2023-03-20T07:44:25.557Z,4.07
2023-03-20T07:46:53.547Z,4.75
2023-03-20T07:49:24.687Z,3.83
2023-03-20T07:51:54.384Z,3.90
2023-03-20T07:54:22.195Z,3.33
2023-03-20T07:56:51.778Z,3.23
2023-03-20T07:59:20.547Z,4.20
2023-03-20T08:01:48.321Z,3.97
2023-03-20T08:04:19.332Z,3.03
2023-03-20T08:06:47.209Z,3.17
2023-03-20T08:09:15.082Z,2.73
2023-03-20T08:11:42.857Z,3.30
2023-03-20T08:14:12.099Z,3.03
2023-03-20T08:16:40.055Z,3.10
2023-03-20T08:19:08.037Z,3.10
2023-03-20T08:21:36.095Z,3.00
2023-03-20T08:24:03.890Z,3.50
2023-03-20T08:26:31.712Z,2.80
2023-03-20T08:28:59.585Z,2.70
2023-03-20T08:31:28.774Z,2.80
2023-03-20T08:33:57.612Z,3.07
2023-03-20T08:36:25.597Z,2.80
2023-03-20T08:38:53.412Z,3.17
2023-03-20T08:41:21.203Z,2.90
2023-03-20T08:43:48.924Z,2.80
2023-03-20T08:46:16.793Z,2.90
2023-03-20T08:48:46.133Z,3.30
2023-03-20T08:51:13.913Z,2.97
2023-03-20T08:53:41.666Z,2.80
2023-03-20T08:56:10.743Z,2.50
2023-03-20T08:58:38.609Z,1.80
2023-03-20T09:01:08.407Z,2.43
2023-03-20T09:03:36.326Z,2.50
2023-03-20T09:06:08.820Z,2.00
2023-03-20T09:08:36.626Z,2.10
2023-03-20T09:11:05.649Z,2.77
2023-03-20T09:13:33.524Z,2.97
2023-03-20T09:16:01.383Z,2.57
2023-03-20T09:18:29.245Z,2.33
2023-03-20T09:20:57.412Z,2.90
2023-03-20T09:23:26.589Z,2.20
2023-03-20T09:25:54.330Z,1.87
2023-03-20T09:28:22.185Z,2.30
2023-03-20T09:30:50.217Z,3.07
2023-03-20T09:33:18.653Z,2.30
2023-03-20T09:35:46.909Z,2.03
2023-03-20T09:38:14.822Z,2.50
2023-03-20T09:40:53.069Z,2.00
2023-03-20T09:43:34.011Z,1.70
2023-03-20T09:46:10.746Z,2.10
2023-03-20T09:48:45.704Z,2.40
2023-03-20T09:51:22.133Z,1.90
2023-03-20T09:53:54.928Z,2.47
2023-03-20T09:56:27.748Z,1.97
2023-03-20T09:58:57.259Z,2.17
2023-03-20T10:01:31.164Z,2.00
2023-03-20T10:04:01.921Z,1.57
2023-03-20T10:06:29.902Z,1.80
2023-03-20T10:08:58.190Z,1.80
2023-03-20T10:11:41.953Z,1.80
2023-03-20T10:14:24.341Z,2.00
2023-03-20T10:17:09.022Z,1.67
2023-03-20T10:19:45.047Z,1.70
2023-03-20T10:22:21.959Z,1.50
2023-03-20T10:24:56.617Z,1.60
2023-03-20T10:27:28.446Z,1.87
2023-03-20T10:30:13.532Z,1.43
2023-03-20T10:32:48.752Z,1.43
2023-03-20T10:35:22.843Z,1.40
2023-03-20T10:38:02.278Z,1.40
2023-03-20T10:40:32.863Z,1.97
2023-03-20T10:43:05.473Z,1.70
2023-03-20T10:45:40.842Z,1.53
2023-03-20T10:48:16.019Z,1.00
2023-03-20T10:50:48.007Z,1.30
2023-03-20T10:53:25.298Z,0.90
2023-03-20T10:55:58.355Z,0.97
2023-03-20T10:58:30.936Z,0.90
2023-03-20T11:01:00.245Z,0.80
2023-03-20T11:03:30.144Z,1.00
2023-03-20T11:06:09.758Z,0.90
2023-03-20T11:08:40.810Z,0.90
2023-03-20T11:11:09.531Z,0.80
2023-03-20T11:13:42.494Z,0.80
2023-03-20T11:16:17.897Z,0.90
2023-03-20T11:18:45.827Z,0.90
2023-03-20T11:21:20.107Z,0.77
2023-03-20T11:23:48.543Z,0.70
2023-03-20T11:26:18.975Z,0.80
2023-03-20T11:28:53.679Z,0.80
2023-03-20T11:31:27.033Z,0.70
2023-03-20T11:34:09.908Z,1.10
2023-03-20T11:36:41.081Z,0.93
2023-03-20T11:39:14.915Z,0.90
2023-03-20T11:41:48.267Z,0.80
2023-03-20T11:44:28.888Z,0.93
2023-03-20T11:46:58.815Z,0.80
2023-03-20T11:49:29.187Z,0.80
2023-03-20T11:52:01.426Z,1.00
2023-03-20T11:54:30.815Z,1.03
2023-03-20T11:56:59.903Z,0.97
2023-03-20T11:59:33.884Z,0.73
2023-03-20T12:02:03.949Z,1.07
2023-03-20T12:04:33.872Z,0.73
2023-03-20T12:07:06.717Z,1.00
2023-03-20T12:09:42.454Z,1.00
2023-03-20T12:12:20.381Z,0.83
2023-03-20T12:14:57.752Z,1.07
2023-03-20T12:17:40.302Z,1.00
2023-03-20T12:20:20.829Z,1.00
2023-03-20T12:22:54.624Z,1.10
2023-03-20T12:25:25.408Z,1.10
2023-03-20T12:27:58.873Z,1.20
2023-03-20T12:30:37.467Z,1.10
2023-03-20T12:33:12.179Z,1.33
2023-03-20T12:35:45.568Z,1.67
2023-03-20T12:38:24.215Z,1.13
2023-03-20T12:40:56.387Z,1.00
2023-03-20T12:43:27.313Z,1.07
2023-03-20T12:46:03.328Z,1.10
2023-03-20T12:49:06.796Z,1.23
2023-03-20T12:51:44.968Z,1.00
2023-03-20T12:54:27.450Z,1.30
2023-03-20T12:57:03.720Z,1.10
2023-03-20T12:59:42.581Z,1.20
2023-03-20T13:02:25.409Z,1.03
2023-03-20T13:05:04.170Z,0.90
2023-03-20T13:07:45.819Z,1.40
2023-03-20T13:10:22.428Z,1.10
2023-03-20T13:13:06.933Z,1.45
2023-03-20T13:15:59.133Z,0.90
2023-03-20T13:18:41.997Z,1.00
2023-03-20T13:21:15.130Z,1.47
2023-03-20T13:23:49.469Z,0.87
2023-03-20T13:26:25.651Z,0.90
2023-03-20T13:28:59.834Z,1.40
2023-03-20T13:31:41.405Z,0.80
2023-03-20T13:34:23.024Z,1.00
2023-03-20T13:37:16.166Z,0.90
2023-03-20T13:39:58.532Z,0.80
2023-03-20T13:42:31.853Z,1.13
2023-03-20T13:45:05.814Z,0.80
2023-03-20T13:47:36.024Z,1.23
2023-03-20T13:50:17.152Z,1.17
2023-03-20T13:52:50.327Z,1.10
2023-03-20T13:55:25.266Z,0.93
2023-03-20T13:58:07.909Z,1.10
2023-03-20T14:00:42.094Z,1.10
2023-03-20T14:03:19.899Z,1.10
2023-03-20T14:05:49.387Z,0.77
2023-03-20T14:08:38.111Z,1.27
2023-03-20T14:11:32.557Z,1.47
2023-03-20T14:14:05.477Z,1.60
2023-03-20T14:16:33.532Z,0.90
2023-03-20T14:19:19.022Z,1.00
2023-03-20T14:21:49.234Z,1.30
2023-03-20T14:24:20.194Z,1.10
2023-03-20T14:26:51.132Z,1.27
2023-03-20T14:29:36.418Z,1.40
2023-03-20T14:32:07.219Z,0.83
2023-03-20T14:34:48.463Z,0.80
2023-03-20T14:37:36.433Z,1.27
2023-03-20T14:40:16.767Z,1.00
2023-03-20T14:42:52.185Z,1.23
2023-03-20T14:45:41.906Z,0.90
2023-03-20T14:48:17.095Z,1.27
2023-03-20T14:50:55.993Z,1.10
2023-03-20T14:53:26.704Z,1.27
2023-03-20T14:56:07.082Z,1.20
2023-03-20T14:58:57.747Z,1.10
2023-03-20T15:01:45.886Z,1.10
2023-03-20T15:04:33.246Z,0.90
2023-03-20T15:07:04.689Z,1.07
2023-03-20T15:09:40.061Z,0.80
2023-03-20T15:12:08.356Z,1.00
2023-03-20T15:14:42.275Z,0.90
2023-03-20T15:17:19.093Z,0.80
2023-03-20T15:19:46.959Z,0.77
2023-03-20T15:22:19.904Z,0.80
2023-03-20T15:24:56.869Z,0.80
2023-03-20T15:27:29.351Z,0.90
2023-03-20T15:29:58.007Z,0.93
2023-03-20T15:32:25.987Z,0.90
2023-03-20T15:34:54.639Z,1.10
2023-03-20T15:37:25.203Z,0.80
2023-03-20T15:39:56.765Z,0.87
2023-03-20T15:42:26.603Z,1.20
2023-03-20T15:44:56.627Z,1.00
2023-03-20T15:47:26.228Z,1.10
2023-03-20T15:49:55.617Z,0.80
2023-03-20T15:52:29.642Z,0.90
2023-03-20T15:55:00.890Z,0.80
2023-03-20T15:57:35.727Z,1.00
2023-03-20T16:00:05.775Z,1.20
2023-03-20T16:02:33.687Z,0.80
2023-03-20T16:05:02.545Z,1.30
2023-03-20T16:07:32.274Z,0.90
2023-03-20T16:10:01.979Z,0.80
2023-03-20T16:12:29.735Z,1.00
2023-03-20T16:14:59.277Z,0.90
2023-03-20T16:17:27.912Z,0.80
2023-03-20T16:19:56.079Z,0.90
2023-03-20T16:22:28.036Z,1.00
2023-03-20T16:24:58.342Z,0.80
2023-03-20T16:27:29.862Z,0.90
2023-03-20T16:29:58.773Z,1.00
2023-03-20T16:32:34.820Z,0.90
2023-03-20T16:35:06.153Z,0.90
2023-03-20T16:37:38.991Z,0.90
2023-03-20T16:40:16.791Z,0.87
2023-03-20T16:42:46.344Z,1.00
2023-03-20T16:45:24.199Z,1.20
2023-03-20T16:47:52.171Z,1.00
2023-03-20T16:50:22.117Z,1.10
2023-03-20T16:52:52.471Z,1.20
2023-03-20T16:55:27.583Z,1.10
2023-03-20T16:57:59.811Z,1.37
2023-03-20T17:00:30.492Z,1.00
2023-03-20T17:03:14.435Z,0.90
2023-03-20T17:05:47.851Z,1.47
2023-03-20T17:08:18.575Z,1.47
2023-03-20T17:10:50.351Z,1.03
2023-03-20T17:13:19.628Z,0.97
2023-03-20T17:15:47.519Z,1.00
2023-03-20T17:18:15.868Z,1.20
2023-03-20T17:20:43.717Z,1.40
2023-03-20T17:23:15.800Z,1.53
2023-03-20T17:25:43.992Z,1.33
2023-03-20T17:28:20.434Z,1.40
2023-03-20T17:30:50.201Z,1.20
2023-03-20T17:33:20.825Z,1.07
2023-03-20T17:35:49.218Z,1.30
2023-03-20T17:38:19.967Z,1.10
2023-03-20T17:40:48.009Z,1.47
2023-03-20T17:43:17.195Z,1.40
2023-03-20T17:45:47.407Z,1.33
2023-03-20T17:48:17.889Z,1.33
2023-03-20T17:50:46.541Z,1.60
2023-03-20T17:53:24.002Z,1.27
2023-03-20T17:55:52.160Z,1.10
2023-03-20T17:58:22.449Z,1.00
2023-03-20T18:00:52.557Z,1.47
2023-03-20T18:03:20.684Z,1.50
2023-03-20T18:05:51.074Z,1.67
2023-03-20T18:08:21.152Z,1.60
2023-03-20T18:10:49.880Z,1.40
2023-03-20T18:13:18.547Z,1.50
2023-03-20T18:15:47.550Z,1.20
2023-03-20T18:18:17.048Z,1.23
2023-03-20T18:20:45.637Z,1.40
2023-03-20T18:23:13.751Z,1.57
2023-03-20T18:25:42.383Z,1.40
2023-03-20T18:28:20.394Z,1.40
2023-03-20T18:30:48.730Z,1.83
2023-03-20T18:33:19.199Z,1.63
2023-03-20T18:35:47.554Z,1.60
2023-03-20T18:38:15.469Z,1.80
2023-03-20T18:40:47.018Z,1.43
2023-03-20T18:43:14.902Z,2.00
2023-03-20T18:45:42.737Z,1.50
2023-03-20T18:48:12.524Z,1.60
2023-03-20T18:50:43.491Z,1.70
2023-03-20T18:53:11.949Z,1.87
2023-03-20T18:55:39.773Z,1.57
2023-03-20T18:58:08.914Z,1.40
2023-03-20T19:00:40.163Z,1.50
2023-03-20T19:03:09.160Z,1.30
2023-03-20T19:05:38.306Z,1.33
2023-03-20T19:08:07.710Z,1.60
2023-03-20T19:10:37.662Z,2.23
2023-03-20T19:13:06.820Z,1.60
2023-03-20T19:15:36.668Z,1.33
2023-03-20T19:18:05.183Z,2.07
2023-03-20T19:20:37.335Z,1.60
2023-03-20T19:23:08.370Z,1.67
2023-03-20T19:25:38.000Z,2.20
2023-03-20T19:28:06.530Z,2.00
2023-03-20T19:30:36.903Z,2.40
2023-03-20T19:33:06.546Z,1.77
2023-03-20T19:35:58.931Z,2.80
2023-03-20T19:38:25.679Z,2.40
2023-03-20T19:40:54.253Z,2.00
2023-03-20T19:43:22.776Z,1.80
2023-03-20T19:45:56.011Z,2.20
2023-03-20T19:48:27.328Z,1.60
2023-03-20T19:50:57.468Z,1.90
2023-03-20T19:53:29.256Z,1.73
2023-03-20T19:55:57.872Z,1.60
2023-03-20T19:58:25.690Z,2.20
2023-03-20T20:00:57.605Z,1.77
2023-03-20T20:03:27.144Z,1.57
2023-03-20T20:05:55.138Z,2.20
2023-03-20T20:08:45.169Z,1.50
2023-03-20T20:11:14.320Z,1.90
2023-03-20T20:14:04.229Z,1.90
2023-03-20T20:16:30.935Z,2.00
2023-03-20T20:18:58.761Z,2.37
2023-03-20T20:24:15.983Z,2.40
2023-03-20T20:26:54.257Z,1.77
2023-03-20T20:29:24.375Z,2.50
2023-03-20T20:31:52.341Z,2.50
2023-03-20T20:39:56.092Z,2.10
2023-03-20T20:42:25.595Z,2.27
2023-03-20T20:44:53.422Z,1.80
2023-03-20T20:47:21.242Z,2.10
2023-03-20T20:49:49.453Z,2.40
2023-03-20T20:52:17.563Z,2.63
2023-03-20T20:54:45.602Z,2.50
2023-03-20T20:57:14.222Z,2.20
2023-03-20T20:59:43.453Z,2.70
2023-03-20T21:02:12.412Z,2.97
2023-03-20T21:04:40.953Z,2.27
2023-03-20T21:07:11.879Z,2.27
2023-03-20T21:09:40.475Z,2.13
2023-03-20T21:12:19.628Z,1.90
2023-03-20T21:14:59.771Z,2.20
2023-03-20T21:17:28.487Z,2.67
2023-03-20T21:19:56.617Z,2.27
2023-03-20T21:22:25.036Z,2.60
2023-03-20T21:25:00.755Z,1.90
2023-03-20T21:27:35.323Z,1.97
2023-03-20T21:30:06.366Z,1.90
2023-03-20T21:32:36.814Z,2.37
2023-03-20T21:35:09.811Z,2.70
2023-03-20T21:40:26.082Z,2.37
2023-03-20T21:42:53.883Z,2.60
2023-03-20T21:51:50.248Z,3.10
2023-03-20T21:54:46.080Z,3.17
2023-03-20T21:57:17.646Z,3.47
2023-03-20T22:00:01.233Z,2.80
2023-03-20T22:02:21.421Z,2.60
2023-03-20T22:05:43.364Z,3.37
2023-03-20T22:25:16.590Z,2.67
2023-03-20T22:28:04.388Z,2.50
2023-03-20T22:31:03.353Z,2.20
2023-03-20T22:39:17.448Z,2.23
2023-03-20T22:47:04.918Z,2.90
2023-03-20T22:49:32.731Z,2.53
2023-03-20T22:52:22.510Z,2.30
2023-03-20T22:54:49.777Z,2.90
2023-03-20T22:57:17.593Z,3.00
2023-03-20T23:02:23.786Z,2.70
2023-03-20T23:04:52.374Z,2.50
2023-03-20T23:07:21.643Z,2.30
2023-03-20T23:09:49.488Z,2.57
2023-03-20T23:12:20.168Z,2.40
2023-03-20T23:14:47.995Z,2.93
2023-03-20T23:17:16.350Z,2.70
2023-03-20T23:19:49.233Z,3.20
2023-03-20T23:22:21.286Z,2.97
2023-03-20T23:24:49.186Z,2.30
2023-03-20T23:27:19.754Z,2.43
2023-03-20T23:29:47.625Z,2.00
2023-03-20T23:32:15.600Z,2.60
2023-03-20T23:34:43.539Z,2.60
2023-03-20T23:37:11.457Z,2.40
2023-03-20T23:39:40.909Z,2.37
2023-03-20T23:42:27.595Z,2.40
2023-03-20T23:45:02.163Z,2.30
2023-03-20T23:47:43.933Z,2.50
2023-03-20T23:50:20.820Z,2.33
2023-03-20T23:53:03.623Z,2.30
2023-03-20T23:55:39.208Z,2.47
2023-03-20T23:58:07.304Z,2.50
